Time;durP1;ratioP1;P1;durP2;ratioP2;P2;SDS_P1;SDS_P2;PMS_P1;PMS_P2;Temp;Humidity;BMP_temperature;BMP_pressure;BME280_temperature;BME280_humidity;BME280_pressure;Samples;Min_cycle;Max_cycle;Signal;HPM_P1;HPM_P2
2023/08/06 00:00:14;;;;;;;6.60;4.82;;;16.80;99.90;;;;;;5028580;28;20285;-80
2023/08/06 00:02:43;;;;;;;6.63;5.72;;;16.80;99.90;;;;;;5014991;28;20187;-80
2023/08/06 00:05:11;;;;;;;5.85;5.32;;;16.80;99.90;;;;;;5014520;28;20200;-81
2023/08/06 00:07:40;;;;;;;5.45;4.78;;;16.80;99.90;;;;;;4997816;28;20223;-80
2023/08/06 00:10:08;;;;;;;7.20;5.22;;;16.80;99.90;;;;;;4999192;28;20195;-80
2023/08/06 00:12:35;;;;;;;5.35;4.65;;;16.90;99.90;;;;;;5017652;28;20211;-80
2023/08/06 00:15:03;;;;;;;5.80;5.00;;;17.00;99.90;;;;;;5014403;28;20809;-80
2023/08/06 00:17:30;;;;;;;7.65;5.22;;;17.00;99.90;;;;;;4999933;28;20222;-80
2023/08/06 00:19:58;;;;;;;7.15;5.50;;;17.10;99.90;;;;;;5016858;28;20675;-80
2023/08/06 00:22:25;;;;;;;8.40;5.93;;;17.00;99.90;;;;;;5017704;28;20219;-80
2023/08/06 00:24:57;;;;;;;7.22;6.63;;;17.00;99.90;;;;;;5011857;28;20666;-80
2023/08/06 00:27:24;;;;;;;6.63;6.03;;;17.00;99.90;;;;;;4997910;28;20231;-80
2023/08/06 00:29:53;;;;;;;8.05;6.63;;;16.80;99.90;;;;;;4997096;28;20203;-80
2023/08/06 00:32:21;;;;;;;7.50;6.70;;;16.80;99.90;;;;;;4978386;28;20208;-80
2023/08/06 00:34:49;;;;;;;9.18;7.00;;;16.70;99.90;;;;;;4991206;28;20195;-80
2023/08/06 00:37:17;;;;;;;7.82;7.03;;;16.70;99.90;;;;;;5015337;28;20191;-80
2023/08/06 00:39:45;;;;;;;7.25;6.50;;;16.70;99.90;;;;;;4993288;28;20202;-80
2023/08/06 00:42:14;;;;;;;9.50;7.28;;;16.70;99.90;;;;;;5027165;28;20211;-80
2023/08/06 00:44:41;;;;;;;9.25;6.47;;;16.70;99.90;;;;;;5004693;28;20221;-80
2023/08/06 00:47:09;;;;;;;6.85;6.22;;;16.70;99.90;;;;;;5001745;28;20216;-80
2023/08/06 00:49:37;;;;;;;8.90;6.15;;;16.70;99.90;;;;;;5008360;28;20210;-80
2023/08/06 00:52:06;;;;;;;10.30;5.35;;;16.70;99.90;;;;;;5015433;28;20211;-80
2023/08/06 00:54:34;;;;;;;5.45;4.50;;;16.80;99.90;;;;;;4993095;28;20222;-80
2023/08/06 00:57:03;;;;;;;7.75;4.60;;;16.70;99.90;;;;;;5007013;28;20205;-80
2023/08/06 00:59:32;;;;;;;4.68;4.15;;;16.70;99.90;;;;;;5004605;28;20653;-80
2023/08/06 01:02:00;;;;;;;9.95;4.47;;;16.70;99.90;;;;;;4997026;28;20207;-80
2023/08/06 01:04:27;;;;;;;4.57;4.10;;;16.60;99.90;;;;;;5000692;28;20196;-80
2023/08/06 01:07:06;;;;;;;4.25;3.85;;;16.70;99.90;;;;;;5011366;28;20219;-82
2023/08/06 01:09:45;;;;;;;7.30;3.60;;;16.70;99.90;;;;;;4994005;28;20564;-80
2023/08/06 01:12:22;;;;;;;4.78;3.90;;;16.70;99.90;;;;;;5033090;28;20219;-80
2023/08/06 01:14:58;;;;;;;4.97;4.28;;;16.60;99.90;;;;;;5001548;28;20198;-80
2023/08/06 01:17:26;;;;;;;5.25;4.28;;;16.70;99.90;;;;;;5026056;28;20219;-81
2023/08/06 01:19:53;;;;;;;4.20;3.88;;;16.70;99.90;;;;;;5024230;28;20210;-80
2023/08/06 01:22:22;;;;;;;6.43;4.10;;;16.70;99.90;;;;;;5015539;28;20202;-80
2023/08/06 01:24:52;;;;;;;4.55;3.72;;;16.60;99.90;;;;;;4989707;28;20203;-80
2023/08/06 01:27:28;;;;;;;5.35;4.05;;;16.60;99.90;;;;;;5013768;28;20214;-80
2023/08/06 01:30:07;;;;;;;4.68;3.45;;;16.60;99.90;;;;;;4996002;28;20200;-80
2023/08/06 01:32:37;;;;;;;5.60;4.25;;;16.60;99.90;;;;;;4998045;28;20249;-80
2023/08/06 01:35:06;;;;;;;4.53;3.53;;;16.60;99.90;;;;;;4998393;28;20195;-80
2023/08/06 01:37:35;;;;;;;4.50;3.83;;;16.60;99.90;;;;;;5008230;28;20212;-80
2023/08/06 01:40:07;;;;;;;6.18;4.20;;;16.60;99.90;;;;;;5007401;28;20188;-80
2023/08/06 01:42:35;;;;;;;3.90;3.60;;;16.60;99.90;;;;;;4983035;28;20223;-80
2023/08/06 01:45:02;;;;;;;3.92;3.63;;;16.60;99.90;;;;;;5005363;28;20205;-80
2023/08/06 01:47:30;;;;;;;8.85;4.30;;;16.60;99.90;;;;;;5001376;28;20572;-80
2023/08/06 01:49:57;;;;;;;4.70;4.07;;;16.60;99.90;;;;;;4999827;28;20677;-80
2023/08/06 01:52:25;;;;;;;4.38;3.58;;;16.60;99.90;;;;;;5001579;28;20203;-80
2023/08/06 01:54:55;;;;;;;3.78;3.47;;;16.50;99.90;;;;;;5002576;28;20194;-80
2023/08/06 01:57:22;;;;;;;4.15;3.85;;;16.60;99.90;;;;;;5020142;28;20199;-80
2023/08/06 01:59:50;;;;;;;5.20;3.65;;;16.60;99.90;;;;;;5001791;28;20198;-80
2023/08/06 02:02:17;;;;;;;6.18;3.75;;;16.60;99.90;;;;;;4995304;28;20534;-80
2023/08/06 02:04:45;;;;;;;4.72;4.15;;;16.60;99.90;;;;;;5017972;28;20195;-80
2023/08/06 02:07:13;;;;;;;5.18;4.28;;;16.50;99.90;;;;;;4998173;28;20218;-83
2023/08/06 02:09:41;;;;;;;4.90;3.70;;;16.40;99.90;;;;;;5006014;28;20198;-83
2023/08/06 02:12:10;;;;;;;4.90;3.92;;;16.60;99.90;;;;;;5006346;28;20215;-83
2023/08/06 02:14:37;;;;;;;6.20;4.13;;;16.50;99.90;;;;;;4992503;28;20657;-83
2023/08/06 02:17:04;;;;;;;4.82;3.97;;;16.50;99.90;;;;;;4999404;28;20196;-85
2023/08/06 02:19:32;;;;;;;4.75;3.65;;;16.30;99.90;;;;;;5032316;28;20202;-83
2023/08/06 02:21:59;;;;;;;6.57;4.10;;;16.60;99.90;;;;;;5001228;28;20572;-83
2023/08/06 02:24:26;;;;;;;4.00;3.70;;;16.50;99.90;;;;;;5005488;28;20195;-83
2023/08/06 02:26:56;;;;;;;5.25;4.10;;;16.40;99.90;;;;;;5004203;28;20202;-83
2023/08/06 02:29:25;;;;;;;5.43;4.00;;;16.40;99.90;;;;;;5001173;28;20219;-83
2023/08/06 02:31:52;;;;;;;5.43;3.67;;;16.30;99.90;;;;;;5008748;28;20517;-83
2023/08/06 02:34:19;;;;;;;3.90;3.50;;;16.30;99.90;;;;;;5032210;28;20206;-83
2023/08/06 02:36:47;;;;;;;4.13;3.70;;;16.40;99.90;;;;;;5004236;28;20196;-84
2023/08/06 02:39:15;;;;;;;3.70;3.40;;;16.40;99.90;;;;;;5002857;28;20222;-83
2023/08/06 02:41:42;;;;;;;5.35;3.40;;;16.20;99.90;;;;;;5000391;28;20206;-83
2023/08/06 02:44:10;;;;;;;6.50;4.00;;;16.30;99.90;;;;;;4998617;28;20207;-83
2023/08/06 02:46:38;;;;;;;3.85;3.45;;;16.20;99.90;;;;;;5007335;28;20198;-84
2023/08/06 02:49:07;;;;;;;4.40;3.72;;;16.20;99.90;;;;;;5001967;28;20227;-83
2023/08/06 02:51:34;;;;;;;4.57;4.15;;;16.30;99.90;;;;;;4995941;28;20404;-82
2023/08/06 02:54:02;;;;;;;5.57;4.28;;;16.30;99.90;;;;;;5040146;28;20204;-83
2023/08/06 02:56:30;;;;;;;5.38;3.78;;;16.20;99.90;;;;;;5006919;28;20209;-83
2023/08/06 02:59:12;;;;;;;4.15;3.75;;;16.20;99.90;;;;;;4989701;28;20231;-84
2023/08/06 03:01:52;;;;;;;6.45;4.28;;;16.30;99.90;;;;;;4995663;28;20191;-85
2023/08/06 03:04:27;;;;;;;5.15;3.45;;;16.20;99.90;;;;;;4998683;28;20194;-86
2023/08/06 03:06:54;;;;;;;3.92;3.30;;;16.20;99.90;;;;;;5007445;28;20206;-83
2023/08/06 03:09:25;;;;;;;4.70;3.75;;;16.20;99.90;;;;;;4999969;28;20212;-88
2023/08/06 03:11:53;;;;;;;3.85;3.53;;;16.20;99.90;;;;;;5000549;28;20207;-83
2023/08/06 03:14:21;;;;;;;3.95;3.47;;;16.20;99.90;;;;;;4995045;28;20206;-83
2023/08/06 03:16:48;;;;;;;4.10;3.67;;;16.10;99.90;;;;;;4995470;28;20196;-86
2023/08/06 03:19:19;;;;;;;3.58;3.28;;;16.10;99.90;;;;;;5001349;28;20222;-85
2023/08/06 03:21:47;;;;;;;4.82;3.70;;;16.10;99.90;;;;;;5002929;28;20191;-83
2023/08/06 03:24:16;;;;;;;5.68;3.80;;;16.60;99.90;;;;;;5001359;28;20210;-83
2023/08/06 03:26:45;;;;;;;4.15;3.53;;;16.70;99.90;;;;;;5006532;28;20548;-86
2023/08/06 03:29:13;;;;;;;4.65;3.97;;;16.60;99.90;;;;;;5005035;28;20219;-84
2023/08/06 03:31:41;;;;;;;5.18;3.70;;;16.60;99.90;;;;;;5005927;28;20551;-84
2023/08/06 03:34:08;;;;;;;4.28;3.58;;;16.80;99.90;;;;;;5019394;28;20214;-85
2023/08/06 03:36:37;;;;;;;4.22;3.55;;;16.90;99.90;;;;;;5005227;28;20202;-83
2023/08/06 03:39:05;;;;;;;3.72;3.42;;;16.80;99.90;;;;;;5006776;28;20234;-83
2023/08/06 03:41:33;;;;;;;4.80;3.25;;;16.50;99.90;;;;;;5005816;28;20202;-84
2023/08/06 03:44:02;;;;;;;4.53;3.38;;;16.40;99.90;;;;;;5000661;28;20196;-84
2023/08/06 03:46:32;;;;;;;3.90;3.60;;;16.40;99.90;;;;;;5005324;28;20191;-83
2023/08/06 03:49:00;;;;;;;3.80;3.50;;;16.60;99.90;;;;;;5003605;28;20610;-83
2023/08/06 03:51:28;;;;;;;4.13;3.40;;;16.60;99.90;;;;;;5006061;28;20198;-83
2023/08/06 03:53:59;;;;;;;5.53;3.75;;;16.40;99.90;;;;;;4998749;28;20200;-83
2023/08/06 03:56:27;;;;;;;4.38;3.97;;;16.40;99.90;;;;;;4999514;28;20192;-83
2023/08/06 03:58:54;;;;;;;4.38;3.47;;;16.50;99.90;;;;;;5001027;28;20573;-90
2023/08/06 04:01:22;;;;;;;4.10;3.70;;;16.40;99.90;;;;;;4999655;28;20664;-86
2023/08/06 04:03:49;;;;;;;7.90;3.90;;;16.30;99.90;;;;;;5018684;28;20213;-85
2023/08/06 04:06:17;;;;;;;4.03;3.67;;;16.40;99.90;;;;;;5014710;28;20190;-83
2023/08/06 04:08:45;;;;;;;5.28;3.60;;;16.80;99.90;;;;;;5000308;28;20220;-83
2023/08/06 04:11:14;;;;;;;3.50;3.20;;;16.60;99.90;;;;;;4999070;28;20215;-83
2023/08/06 04:13:44;;;;;;;7.03;3.72;;;16.50;99.90;;;;;;5029689;28;20203;-84
2023/08/06 04:16:13;;;;;;;4.93;3.67;;;16.50;99.90;;;;;;5029189;28;20204;-85
2023/08/06 04:18:40;;;;;;;3.38;3.08;;;16.50;99.90;;;;;;5025982;28;20221;-84
2023/08/06 04:21:08;;;;;;;5.63;3.63;;;16.90;99.90;;;;;;5028559;28;20211;-83
2023/08/06 04:23:35;;;;;;;5.00;3.53;;;17.10;99.90;;;;;;4992616;28;20211;-84
2023/08/06 04:26:05;;;;;;;3.88;3.40;;;17.20;99.90;;;;;;5019396;28;20192;-83
2023/08/06 04:28:45;;;;;;;4.25;3.85;;;17.40;99.90;;;;;;4997684;28;20211;-83
2023/08/06 04:31:12;;;;;;;3.92;3.20;;;17.50;99.90;;;;;;5011846;28;20195;-85
2023/08/06 04:33:42;;;;;;;3.35;3.05;;;17.70;99.90;;;;;;5019482;28;20191;-83
2023/08/06 04:36:13;;;;;;;3.78;3.47;;;17.60;99.90;;;;;;5039015;23;20203;-76
2023/08/06 04:38:44;;;;;;;6.65;3.22;;;17.80;99.90;;;;;;5035600;28;20207;-78
2023/08/06 04:41:12;;;;;;;3.75;3.35;;;17.80;99.90;;;;;;5047052;28;20199;-78
2023/08/06 04:43:40;;;;;;;6.10;4.60;;;17.90;99.90;;;;;;5035730;28;20198;-78
2023/08/06 04:46:09;;;;;;;6.15;3.67;;;17.60;99.90;;;;;;5047895;28;20210;-78
2023/08/06 04:48:37;;;;;;;5.50;3.20;;;17.20;99.90;;;;;;5050451;28;20234;-77
2023/08/06 04:51:04;;;;;;;6.05;3.60;;;17.60;99.90;;;;;;5046747;28;20210;-79
2023/08/06 04:53:32;;;;;;;5.22;3.20;;;17.50;99.90;;;;;;5043441;28;20674;-79
2023/08/06 04:55:59;;;;;;;5.18;3.92;;;17.00;99.90;;;;;;5045694;28;20199;-78
2023/08/06 04:58:30;;;;;;;4.35;3.95;;;16.80;99.90;;;;;;5048575;28;20636;-80
2023/08/06 05:00:57;;;;;;;5.13;4.03;;;16.70;99.90;;;;;;5041190;28;20205;-79
2023/08/06 05:03:26;;;;;;;4.50;3.92;;;16.50;99.90;;;;;;5039297;28;20202;-81
2023/08/06 05:05:53;;;;;;;4.50;3.90;;;16.70;99.90;;;;;;5041477;28;20194;-79
2023/08/06 05:08:21;;;;;;;4.90;3.85;;;16.70;99.90;;;;;;5026082;28;20238;-80
2023/08/06 05:10:48;;;;;;;4.72;4.22;;;17.10;99.90;;;;;;5055625;28;20205;-80
2023/08/06 05:13:16;;;;;;;5.80;3.83;;;17.10;99.90;;;;;;5040816;28;20209;-79
2023/08/06 05:15:47;;;;;;;4.55;4.15;;;17.10;99.90;;;;;;5036336;28;20285;-80
2023/08/06 05:18:55;;;;;;;4.22;3.80;;;17.10;99.90;;;;;;5035919;28;20226;-80
2023/08/06 05:21:25;;;;;;;5.25;4.07;;;17.30;99.90;;;;;;5019282;28;20202;-79
2023/08/06 05:23:53;;;;;;;4.30;3.90;;;17.00;99.90;;;;;;5035442;28;20198;-80
2023/08/06 05:26:20;;;;;;;8.32;4.43;;;16.80;99.90;;;;;;5038048;28;20218;-77
2023/08/06 05:28:48;;;;;;;7.45;4.60;;;16.70;99.90;;;;;;5036167;28;20218;-78
2023/08/06 05:31:20;;;;;;;10.13;4.60;;;16.60;99.90;;;;;;5025844;28;20203;-79
2023/08/06 05:33:47;;;;;;;4.68;4.28;;;16.40;99.90;;;;;;5033571;28;20205;-80
2023/08/06 05:36:17;;;;;;;6.22;4.07;;;16.50;99.90;;;;;;5036344;28;20205;-80
2023/08/06 05:38:45;;;;;;;4.68;4.00;;;16.50;99.90;;;;;;5037358;28;20650;-80
2023/08/06 05:41:12;;;;;;;6.47;4.47;;;16.40;99.90;;;;;;5036636;28;20206;-80
2023/08/06 05:43:40;;;;;;;5.57;4.32;;;16.50;99.90;;;;;;5036961;28;20198;-79
2023/08/06 05:46:07;;;;;;;6.38;4.45;;;16.60;99.90;;;;;;5037348;28;20198;-79
2023/08/06 05:48:35;;;;;;;4.38;3.95;;;16.60;99.90;;;;;;5054197;28;20202;-80
2023/08/06 05:51:04;;;;;;;4.82;4.20;;;16.60;99.90;;;;;;5031977;28;20213;-78
2023/08/06 05:53:32;;;;;;;5.10;3.75;;;16.60;99.90;;;;;;5036236;28;20648;-80
2023/08/06 05:56:02;;;;;;;5.35;3.70;;;16.60;99.90;;;;;;5050987;28;20206;-80
2023/08/06 05:58:32;;;;;;;4.53;4.13;;;16.90;99.90;;;;;;5036565;28;20210;-80
2023/08/06 06:00:59;;;;;;;6.03;3.75;;;17.00;99.90;;;;;;5033678;28;20198;-80
2023/08/06 06:03:30;;;;;;;4.60;4.20;;;17.10;99.90;;;;;;5029285;28;20229;-79
2023/08/06 06:05:57;;;;;;;5.72;3.17;;;17.00;99.90;;;;;;5032204;28;20194;-80
2023/08/06 06:08:24;;;;;;;7.32;3.92;;;17.20;99.90;;;;;;5031518;28;20206;-80
2023/08/06 06:10:53;;;;;;;4.95;3.75;;;17.40;99.90;;;;;;5030733;28;20229;-79
2023/08/06 06:13:21;;;;;;;4.30;3.67;;;17.70;99.90;;;;;;5032244;28;20213;-79
2023/08/06 06:15:48;;;;;;;5.07;3.60;;;17.40;99.90;;;;;;5031092;28;20194;-78
2023/08/06 06:18:29;;;;;;;4.78;3.53;;;17.40;99.90;;;;;;5036502;28;20240;-79
2023/08/06 06:20:56;;;;;;;6.45;3.28;;;17.20;99.90;;;;;;5037542;28;20186;-79
2023/08/06 06:23:24;;;;;;;4.25;3.45;;;17.30;99.90;;;;;;5037489;28;20205;-79
2023/08/06 06:25:53;;;;;;;3.42;3.13;;;17.30;99.90;;;;;;5037203;28;20191;-79
2023/08/06 06:28:20;;;;;;;3.88;3.13;;;17.30;99.90;;;;;;5023796;28;20214;-79
2023/08/06 06:30:48;;;;;;;3.28;2.88;;;17.40;99.90;;;;;;5036749;28;20214;-79
2023/08/06 06:33:16;;;;;;;3.50;3.10;;;17.40;99.90;;;;;;5034533;28;20203;-79
2023/08/06 06:35:43;;;;;;;3.85;3.22;;;17.50;99.90;;;;;;5027337;28;20194;-79
2023/08/06 06:38:11;;;;;;;4.97;3.15;;;17.40;99.90;;;;;;5050366;28;20218;-79
2023/08/06 06:40:38;;;;;;;3.30;2.78;;;17.40;99.90;;;;;;5035407;28;20198;-79
2023/08/06 06:43:07;;;;;;;4.03;3.10;;;17.30;99.90;;;;;;5053774;28;20179;-78
2023/08/06 06:45:34;;;;;;;3.30;3.00;;;17.30;99.90;;;;;;5051604;28;20205;-79
2023/08/06 06:48:02;;;;;;;3.22;2.88;;;17.30;99.90;;;;;;5055043;28;20211;-79
2023/08/06 06:50:29;;;;;;;3.30;2.95;;;17.30;99.90;;;;;;5035172;28;20544;-79
2023/08/06 06:52:57;;;;;;;2.58;2.38;;;17.30;99.90;;;;;;5035843;28;20198;-79
2023/08/06 06:55:24;;;;;;;4.13;2.90;;;17.50;99.90;;;;;;5019741;28;20210;-78
2023/08/06 06:57:52;;;;;;;4.05;3.05;;;17.70;99.90;;;;;;5027023;28;20225;-79
2023/08/06 07:00:21;;;;;;;4.68;2.30;;;17.70;99.90;;;;;;5033354;28;20204;-79
2023/08/06 07:02:48;;;;;;;3.13;2.83;;;17.70;99.90;;;;;;5040283;28;20202;-78
2023/08/06 07:05:16;;;;;;;4.05;3.22;;;17.60;99.90;;;;;;5041122;28;20194;-79
2023/08/06 07:07:43;;;;;;;2.60;2.40;;;17.50;99.90;;;;;;5035007;28;20222;-79
2023/08/06 07:10:11;;;;;;;3.22;2.50;;;17.50;99.90;;;;;;5057153;28;20687;-79
2023/08/06 07:12:45;;;;;;;4.32;2.60;;;17.60;99.90;;;;;;5038454;28;20205;-78
2023/08/06 07:15:17;;;;;;;4.25;2.40;;;17.60;99.90;;;;;;5059356;28;20197;-78
2023/08/06 07:17:46;;;;;;;3.05;2.50;;;17.80;99.90;;;;;;5037092;28;20218;-79
2023/08/06 07:20:13;;;;;;;4.10;2.60;;;17.90;99.90;;;;;;5041770;28;20205;-78
2023/08/06 07:22:41;;;;;;;4.38;2.88;;;17.90;99.90;;;;;;5058460;28;20190;-79
2023/08/06 07:25:08;;;;;;;2.92;2.45;;;17.90;99.90;;;;;;5041053;28;20202;-79
2023/08/06 07:27:36;;;;;;;4.07;2.63;;;17.90;99.90;;;;;;5043067;28;20222;-79
2023/08/06 07:30:05;;;;;;;3.50;2.65;;;18.00;99.90;;;;;;5041136;28;20225;-78
2023/08/06 07:32:32;;;;;;;6.90;3.47;;;18.00;99.90;;;;;;5036470;28;20205;-78
2023/08/06 07:35:12;;;;;;;4.03;2.53;;;18.20;99.90;;;;;;5037351;28;20210;-78
2023/08/06 07:37:39;;;;;;;3.33;2.53;;;18.10;99.90;;;;;;5040068;28;20230;-79
2023/08/06 07:40:08;;;;;;;10.25;3.47;;;18.20;99.90;;;;;;5059089;28;20190;-78
2023/08/06 07:42:35;;;;;;;6.75;3.45;;;18.30;99.90;;;;;;5043520;28;20198;-77
2023/08/06 07:45:03;;;;;;;7.15;3.60;;;18.60;99.90;;;;;;5048696;28;20190;-78
2023/08/06 07:47:31;;;;;;;4.88;2.63;;;18.70;99.90;;;;;;5038220;28;20225;-78
2023/08/06 07:50:00;;;;;;;8.70;4.20;;;18.90;99.90;;;;;;5040673;28;20210;-78
2023/08/06 07:52:30;;;;;;;7.22;3.60;;;18.90;99.90;;;;;;5043080;28;20230;-79
2023/08/06 07:54:58;;;;;;;5.00;2.85;;;18.90;99.90;;;;;;5043148;28;20198;-80
2023/08/06 07:57:26;;;;;;;8.73;3.00;;;19.00;99.90;;;;;;5035077;28;20222;-79
2023/08/06 07:59:54;;;;;;;4.72;2.30;;;18.80;99.90;;;;;;5042950;28;20560;-78
2023/08/06 08:02:21;;;;;;;2.60;2.33;;;18.80;99.90;;;;;;5042652;28;20198;-79
2023/08/06 08:04:49;;;;;;;3.83;2.60;;;18.90;99.90;;;;;;5060328;28;20198;-78
2023/08/06 08:07:16;;;;;;;3.83;2.63;;;18.80;99.90;;;;;;5047920;28;20221;-78
2023/08/06 08:09:48;;;;;;;3.58;2.35;;;18.70;99.90;;;;;;5051651;28;20202;-77
2023/08/06 08:12:15;;;;;;;3.28;2.50;;;18.70;99.90;;;;;;5037283;28;20659;-78
2023/08/06 08:14:45;;;;;;;3.72;2.90;;;18.70;99.90;;;;;;5040206;28;20207;-77
2023/08/06 08:17:12;;;;;;;4.60;2.35;;;18.70;99.90;;;;;;5036006;28;20214;-78
2023/08/06 08:19:41;;;;;;;2.72;2.53;;;18.80;99.90;;;;;;5037547;28;20205;-78
2023/08/06 08:22:12;;;;;;;5.72;2.85;;;18.80;99.90;;;;;;5037598;28;20197;-78
2023/08/06 08:24:40;;;;;;;3.40;1.98;;;18.90;99.90;;;;;;5035209;28;20620;-77
2023/08/06 08:27:09;;;;;;;3.50;2.47;;;18.80;99.90;;;;;;5056110;28;20529;-78
2023/08/06 08:29:38;;;;;;;4.63;2.72;;;18.70;1.00;;;;;;5039231;28;20201;-79
2023/08/06 08:32:06;;;;;;;4.60;2.50;;;18.90;1.00;;;;;;5031081;28;20237;-78
2023/08/06 08:34:44;;;;;;;5.70;2.38;;;18.90;99.90;;;;;;5031918;28;20202;-78
2023/08/06 08:37:11;;;;;;;3.97;3.33;;;18.70;1.00;;;;;;5031359;28;20237;-78
2023/08/06 08:39:39;;;;;;;4.60;2.17;;;18.70;99.90;;;;;;5027289;28;20205;-77
2023/08/06 08:42:07;;;;;;;4.15;2.55;;;18.70;1.00;;;;;;5033260;28;20230;-78
2023/08/06 08:44:39;;;;;;;2.90;2.47;;;18.70;99.90;;;;;;5031749;28;20195;-78
2023/08/06 08:47:09;;;;;;;2.90;2.60;;;18.70;1.00;;;;;;5029813;28;20229;-78
2023/08/06 08:49:41;;;;;;;2.88;2.53;;;18.70;99.90;;;;;;5030391;28;20772;-77
2023/08/06 08:52:15;;;;;;;5.57;3.03;;;18.70;61.30;;;;;;5049324;28;20226;-77
2023/08/06 08:54:51;;;;;;;2.53;2.33;;;18.70;99.90;;;;;;5037165;28;20221;-77
2023/08/06 08:57:19;;;;;;;4.25;3.30;;;18.80;1.00;;;;;;5038216;28;20225;-78
2023/08/06 08:59:48;;;;;;;3.58;2.85;;;18.70;1.00;;;;;;5036548;28;20207;-77
2023/08/06 09:02:16;;;;;;;3.75;2.78;;;18.60;1.00;;;;;;5034841;28;20198;-77
2023/08/06 09:04:45;;;;;;;3.08;2.40;;;18.40;99.90;;;;;;5028631;28;20194;-78
2023/08/06 09:07:18;;;;;;;4.68;3.78;;;18.40;1.00;;;;;;5036145;28;20230;-77
2023/08/06 09:09:49;;;;;;;4.50;3.50;;;18.40;1.00;;;;;;5040755;28;20202;-77
2023/08/06 09:12:22;;;;;;;3.35;2.78;;;18.30;96.90;;;;;;5040202;28;20217;-79
2023/08/06 09:14:51;;;;;;;4.60;2.90;;;18.50;99.90;;;;;;5039495;28;20199;-78
2023/08/06 09:17:19;;;;;;;5.90;3.42;;;18.60;83.20;;;;;;5055705;28;20292;-76
2023/08/06 09:19:49;;;;;;;5.97;3.05;;;18.70;6.50;;;;;;5035989;28;20209;-79
2023/08/06 09:22:17;;;;;;;5.35;3.20;;;18.90;1.00;;;;;;5034238;28;20206;-78
2023/08/06 09:24:44;;;;;;;5.47;3.33;;;18.90;1.00;;;;;;5036121;28;20206;-77
2023/08/06 09:27:13;;;;;;;4.68;3.40;;;19.00;1.00;;;;;;5036676;28;20708;-78
2023/08/06 09:29:42;;;;;;;4.32;3.40;;;19.00;1.00;;;;;;5032086;28;20198;-75
2023/08/06 09:32:14;;;;;;;4.28;3.83;;;19.00;1.00;;;;;;5035174;28;20218;-77
2023/08/06 09:34:56;;;;;;;5.15;4.28;;;19.20;1.00;;;;;;5053978;28;20198;-78
2023/08/06 09:37:24;;;;;;;7.20;4.75;;;18.90;1.00;;;;;;5027869;28;20222;-77
2023/08/06 09:39:53;;;;;;;4.03;3.70;;;18.80;1.00;;;;;;5035607;28;20668;-77
2023/08/06 09:42:21;;;;;;;3.50;3.15;;;18.90;1.00;;;;;;5026800;28;20611;-78
2023/08/06 09:44:48;;;;;;;4.78;3.25;;;18.90;1.00;;;;;;5033021;28;20578;-78
2023/08/06 09:47:18;;;;;;;3.28;2.47;;;18.90;99.90;;;;;;5052295;28;20868;-77
2023/08/06 09:49:46;;;;;;;3.58;2.97;;;18.80;1.00;;;;;;5042801;28;20506;-78
2023/08/06 09:52:15;;;;;;;3.28;2.80;;;18.90;1.00;;;;;;5038025;28;20241;-76
2023/08/06 09:55:11;;;;;;;3.90;2.70;;;18.90;1.00;;;;;;5032457;28;20194;-77
2023/08/06 09:57:39;;;;;;;2.65;2.15;;;18.90;99.90;;;;;;5033759;28;20584;-77
2023/08/06 10:00:09;;;;;;;4.00;2.70;;;19.20;99.90;;;;;;5039226;28;20589;-76
2023/08/06 10:02:54;;;;;;;3.33;2.53;;;19.20;61.40;;;;;;5060378;28;20198;-75
2023/08/06 10:05:42;;;;;;;3.33;2.33;;;19.20;1.00;;;;;;5035373;28;20198;-78
2023/08/06 10:08:09;;;;;;;4.03;3.50;;;19.30;1.00;;;;;;5035200;28;20222;-77
2023/08/06 10:10:38;;;;;;;3.55;3.20;;;19.30;89.50;;;;;;5050999;28;20190;-78
2023/08/06 10:13:08;;;;;;;2.90;2.20;;;19.40;99.90;;;;;;5032395;28;20206;-77
2023/08/06 10:15:41;;;;;;;1.80;1.70;;;19.30;99.90;;;;;;5039820;28;20197;-77
2023/08/06 10:18:22;;;;;;;2.45;2.25;;;19.30;99.90;;;;;;5037058;28;20680;-78
2023/08/06 10:20:51;;;;;;;2.75;2.00;;;19.20;99.90;;;;;;5026986;28;20198;-77
2023/08/06 10:23:20;;;;;;;4.03;1.95;;;19.30;99.90;;;;;;5036123;28;20206;-77
2023/08/06 10:25:56;;;;;;;2.92;2.13;;;19.30;99.90;;;;;;5023057;28;20207;-78
2023/08/06 10:28:34;;;;;;;3.85;2.70;;;19.20;99.90;;;;;;5029190;28;20222;-77
2023/08/06 10:31:11;;;;;;;2.88;2.63;;;19.30;99.90;;;;;;5028683;28;20264;-77
2023/08/06 10:33:45;;;;;;;3.40;2.60;;;19.50;99.90;;;;;;5029877;28;20201;-77
2023/08/06 10:36:13;;;;;;;2.67;2.20;;;19.50;99.90;;;;;;5032715;28;20202;-78
2023/08/06 10:38:51;;;;;;;3.65;3.00;;;19.60;99.90;;;;;;5031425;28;20660;-77
2023/08/06 10:41:24;;;;;;;2.63;2.42;;;19.80;99.90;;;;;;5031905;28;20190;-78
2023/08/06 10:43:52;;;;;;;3.22;2.60;;;19.90;99.90;;;;;;5031114;28;20201;-77
2023/08/06 10:46:24;;;;;;;3.33;3.00;;;19.90;99.90;;;;;;5032456;28;20194;-77
2023/08/06 10:48:53;;;;;;;3.60;3.30;;;20.00;99.90;;;;;;5032093;28;20198;-77
2023/08/06 10:51:21;;;;;;;4.82;2.55;;;20.00;99.90;;;;;;5024584;28;20222;-77
2023/08/06 10:53:50;;;;;;;2.58;2.38;;;19.80;99.90;;;;;;5027773;28;20221;-77
2023/08/06 10:56:18;;;;;;;3.33;2.90;;;19.90;99.90;;;;;;5045531;28;20678;-77
2023/08/06 10:58:47;;;;;;;3.95;3.35;;;19.90;99.90;;;;;;5044255;28;20198;-77
2023/08/06 11:01:15;;;;;;;3.45;2.88;;;19.80;99.90;;;;;;5029314;28;20683;-76
2023/08/06 11:03:43;;;;;;;3.33;3.00;;;19.90;99.90;;;;;;5040605;28;20203;-77
2023/08/06 11:06:18;;;;;;;4.32;3.63;;;19.70;99.90;;;;;;5030868;28;20198;-76
2023/08/06 11:08:49;;;;;;;3.03;2.83;;;19.70;99.90;;;;;;5031890;28;20571;-77
2023/08/06 11:11:18;;;;;;;4.25;3.33;;;20.00;99.90;;;;;;5032607;28;20201;-77
2023/08/06 11:13:47;;;;;;;3.78;3.47;;;20.00;99.90;;;;;;5050088;28;20203;-79
2023/08/06 11:16:28;;;;;;;4.28;3.90;;;20.10;99.90;;;;;;5030619;28;20202;-78
2023/08/06 11:19:00;;;;;;;4.65;3.50;;;20.10;99.90;;;;;;5027410;28;20198;-78
2023/08/06 11:21:31;;;;;;;3.70;3.40;;;20.20;99.90;;;;;;5030526;28;20201;-79
2023/08/06 11:24:00;;;;;;;3.78;3.47;;;19.90;99.90;;;;;;5033636;28;20206;-78
2023/08/06 11:26:32;;;;;;;4.45;3.58;;;19.60;99.90;;;;;;5023327;28;20227;-79
2023/08/06 11:28:59;;;;;;;4.13;3.78;;;19.70;99.90;;;;;;5036888;28;20205;-78
2023/08/06 11:31:27;;;;;;;5.07;4.57;;;20.00;99.90;;;;;;5034621;28;20218;-78
2023/08/06 11:34:00;;;;;;;4.93;4.53;;;19.90;99.90;;;;;;5030923;28;20548;-78
2023/08/06 11:36:33;;;;;;;5.40;4.90;;;19.50;99.90;;;;;;5050985;28;20230;-78
2023/08/06 11:39:05;;;;;;;5.18;4.70;;;19.40;99.90;;;;;;5050216;28;20204;-78
2023/08/06 11:41:39;;;;;;;5.90;5.03;;;19.30;99.90;;;;;;5035183;28;20202;-78
2023/08/06 11:44:09;;;;;;;5.40;5.00;;;19.20;99.90;;;;;;5035021;28;20201;-79
2023/08/06 11:47:01;;;;;;;6.80;6.10;;;18.90;99.90;;;;;;5034458;28;20218;-78
2023/08/06 11:49:44;;;;;;;6.07;5.57;;;18.90;99.90;;;;;;5032354;28;20548;-78
2023/08/06 11:52:16;;;;;;;6.30;5.70;;;18.90;99.90;;;;;;5040445;28;20221;-78
2023/08/06 11:54:43;;;;;;;5.82;5.32;;;19.00;99.90;;;;;;5033190;28;20202;-77
2023/08/06 11:57:14;;;;;;;5.28;4.88;;;18.90;99.90;;;;;;5035626;28;20242;-78
2023/08/06 11:59:42;;;;;;;4.85;4.55;;;18.80;99.90;;;;;;5034987;28;20202;-79
2023/08/06 12:02:11;;;;;;;5.65;5.05;;;18.60;99.90;;;;;;5052206;28;20201;-79
2023/08/06 12:05:05;;;;;;;5.97;5.45;;;18.40;99.90;;;;;;5036007;28;20568;-79
2023/08/06 12:07:39;;;;;;;5.82;5.32;;;18.10;99.90;;;;;;5035708;28;20219;-79
2023/08/06 12:10:07;;;;;;;6.32;5.72;;;17.90;99.90;;;;;;5040338;28;20209;-78
2023/08/06 12:12:38;;;;;;;6.65;5.97;;;17.80;99.90;;;;;;5039186;28;20245;-77
2023/08/06 12:15:07;;;;;;;7.22;6.63;;;17.90;99.90;;;;;;5038675;28;20198;-79
2023/08/06 12:17:38;;;;;;;8.55;7.75;;;17.70;99.90;;;;;;5039391;28;20218;-79
2023/08/06 12:20:07;;;;;;;8.52;7.75;;;17.60;99.90;;;;;;5036001;28;20202;-79
2023/08/06 12:22:38;;;;;;;8.07;7.38;;;17.60;99.90;;;;;;5036235;28;20556;-79
2023/08/06 12:25:08;;;;;;;7.28;6.60;;;17.30;99.90;;;;;;5032150;28;20195;-79
2023/08/06 12:27:37;;;;;;;5.38;4.88;;;17.30;99.90;;;;;;5036298;28;20683;-78
2023/08/06 12:30:18;;;;;;;5.50;4.40;;;17.20;99.90;;;;;;5038812;28;20199;-78
2023/08/06 12:32:46;;;;;;;4.90;4.22;;;17.00;99.90;;;;;;5035047;28;20210;-78
2023/08/06 12:35:14;;;;;;;6.07;4.32;;;16.90;99.90;;;;;;5037415;28;20202;-78
2023/08/06 12:37:43;;;;;;;5.20;4.72;;;16.90;99.90;;;;;;5037628;28;20226;-78
2023/08/06 12:40:11;;;;;;;4.90;4.40;;;16.70;99.90;;;;;;5023239;28;20669;-78
2023/08/06 12:42:39;;;;;;;4.65;4.25;;;16.50;99.90;;;;;;5029324;28;20195;-81
2023/08/06 12:45:07;;;;;;;4.10;3.60;;;16.60;99.90;;;;;;5039672;28;20213;-78
2023/08/06 12:47:34;;;;;;;4.35;3.95;;;16.40;99.90;;;;;;5034626;28;20218;-79
2023/08/06 12:50:02;;;;;;;3.80;3.50;;;16.50;99.90;;;;;;5034506;28;20787;-78
2023/08/06 12:52:46;;;;;;;2.70;2.50;;;16.50;99.90;;;;;;5034596;28;20214;-76
2023/08/06 12:55:13;;;;;;;1.85;1.73;;;16.50;99.90;;;;;;5034007;28;20213;-79
2023/08/06 12:57:41;;;;;;;1.40;1.17;;;16.20;99.90;;;;;;5034879;28;20217;-79
2023/08/06 13:00:09;;;;;;;1.35;0.93;;;16.10;99.90;;;;;;5055377;28;20202;-76